sensor_id;sensor_type;location;lat;lon;timestamp;P1;durP1;ratioP1;P2;durP2;ratioP2
5391;SDS011;2719;53.624;9.786;2022-12-24T00:02:17;14.60;;;4.33;;
5391;SDS011;2719;53.624;9.786;2022-12-24T00:04:44;11.13;;;4.10;;
5391;SDS011;2719;53.624;9.786;2022-12-24T00:07:10;14.80;;;4.40;;
5391;SDS011;2719;53.624;9.786;2022-12-24T00:09:38;11.53;;;4.70;;
5391;SDS011;2719;53.624;9.786;2022-12-24T00:12:05;15.00;;;5.10;;
5391;SDS011;2719;53.624;9.786;2022-12-24T00:14:32;16.00;;;4.70;;
5391;SDS011;2719;53.624;9.786;2022-12-24T00:16:59;19.80;;;5.57;;
5391;SDS011;2719;53.624;9.786;2022-12-24T00:19:25;20.50;;;4.70;;
5391;SDS011;2719;53.624;9.786;2022-12-24T00:21:52;18.77;;;4.87;;
5391;SDS011;2719;53.624;9.786;2022-12-24T00:24:19;12.53;;;4.97;;
5391;SDS011;2719;53.624;9.786;2022-12-24T00:26:47;13.60;;;5.10;;
5391;SDS011;2719;53.624;9.786;2022-12-24T00:29:13;14.40;;;5.40;;
5391;SDS011;2719;53.624;9.786;2022-12-24T00:31:40;10.80;;;4.63;;
5391;SDS011;2719;53.624;9.786;2022-12-24T00:34:07;16.37;;;4.53;;
5391;SDS011;2719;53.624;9.786;2022-12-24T00:36:34;20.47;;;4.50;;
5391;SDS011;2719;53.624;9.786;2022-12-24T00:39:00;20.57;;;5.17;;
5391;SDS011;2719;53.624;9.786;2022-12-24T00:41:27;20.70;;;5.80;;
5391;SDS011;2719;53.624;9.786;2022-12-24T00:43:56;14.03;;;5.77;;
5391;SDS011;2719;53.624;9.786;2022-12-24T00:46:24;22.63;;;5.30;;
5391;SDS011;2719;53.624;9.786;2022-12-24T00:48:52;8.53;;;3.60;;
5391;SDS011;2719;53.624;9.786;2022-12-24T00:51:19;12.90;;;4.97;;
5391;SDS011;2719;53.624;9.786;2022-12-24T00:53:46;17.47;;;5.80;;
5391;SDS011;2719;53.624;9.786;2022-12-24T00:56:13;23.80;;;5.90;;
5391;SDS011;2719;53.624;9.786;2022-12-24T00:58:40;19.00;;;5.20;;
5391;SDS011;2719;53.624;9.786;2022-12-24T01:01:08;11.93;;;4.67;;
5391;SDS011;2719;53.624;9.786;2022-12-24T01:03:34;11.83;;;5.00;;
5391;SDS011;2719;53.624;9.786;2022-12-24T01:06:01;11.70;;;5.67;;
5391;SDS011;2719;53.624;9.786;2022-12-24T01:08:28;10.93;;;3.90;;
5391;SDS011;2719;53.624;9.786;2022-12-24T01:10:55;17.80;;;6.00;;
5391;SDS011;2719;53.624;9.786;2022-12-24T01:13:22;13.50;;;4.40;;
5391;SDS011;2719;53.624;9.786;2022-12-24T01:15:49;19.90;;;6.93;;
5391;SDS011;2719;53.624;9.786;2022-12-24T01:18:17;13.30;;;5.00;;
5391;SDS011;2719;53.624;9.786;2022-12-24T01:20:44;20.07;;;5.57;;
5391;SDS011;2719;53.624;9.786;2022-12-24T01:23:11;12.30;;;4.77;;
5391;SDS011;2719;53.624;9.786;2022-12-24T01:25:37;22.90;;;5.63;;
5391;SDS011;2719;53.624;9.786;2022-12-24T01:28:04;16.03;;;5.43;;
5391;SDS011;2719;53.624;9.786;2022-12-24T01:30:31;18.83;;;6.13;;
5391;SDS011;2719;53.624;9.786;2022-12-24T01:32:58;11.73;;;4.80;;
5391;SDS011;2719;53.624;9.786;2022-12-24T01:35:26;19.60;;;7.03;;
5391;SDS011;2719;53.624;9.786;2022-12-24T01:37:53;21.53;;;5.93;;
5391;SDS011;2719;53.624;9.786;2022-12-24T01:40:19;20.27;;;5.80;;
5391;SDS011;2719;53.624;9.786;2022-12-24T01:43:16;16.93;;;5.57;;
5391;SDS011;2719;53.624;9.786;2022-12-24T01:45:49;11.90;;;4.80;;
5391;SDS011;2719;53.624;9.786;2022-12-24T01:48:21;20.13;;;6.17;;
5391;SDS011;2719;53.624;9.786;2022-12-24T01:50:57;19.80;;;5.10;;
5391;SDS011;2719;53.624;9.786;2022-12-24T01:53:27;15.73;;;4.87;;
5391;SDS011;2719;53.624;9.786;2022-12-24T01:55:56;24.90;;;6.27;;
5391;SDS011;2719;53.624;9.786;2022-12-24T01:58:23;22.47;;;4.97;;
5391;SDS011;2719;53.624;9.786;2022-12-24T02:00:52;16.70;;;5.10;;
5391;SDS011;2719;53.624;9.786;2022-12-24T02:03:18;15.30;;;4.53;;
5391;SDS011;2719;53.624;9.786;2022-12-24T02:05:46;19.47;;;6.10;;
5391;SDS011;2719;53.624;9.786;2022-12-24T02:08:16;15.63;;;5.53;;
5391;SDS011;2719;53.624;9.786;2022-12-24T02:10:43;10.30;;;4.60;;
5391;SDS011;2719;53.624;9.786;2022-12-24T02:13:10;14.93;;;5.03;;
5391;SDS011;2719;53.624;9.786;2022-12-24T02:15:42;15.60;;;5.13;;
5391;SDS011;2719;53.624;9.786;2022-12-24T02:18:20;11.50;;;4.90;;
5391;SDS011;2719;53.624;9.786;2022-12-24T02:21:09;22.87;;;5.63;;
5391;SDS011;2719;53.624;9.786;2022-12-24T02:23:56;12.37;;;4.87;;
5391;SDS011;2719;53.624;9.786;2022-12-24T02:26:47;16.83;;;4.67;;
5391;SDS011;2719;53.624;9.786;2022-12-24T02:29:45;14.07;;;4.60;;
5391;SDS011;2719;53.624;9.786;2022-12-24T02:32:23;21.60;;;5.13;;
5391;SDS011;2719;53.624;9.786;2022-12-24T02:34:57;20.83;;;5.50;;
5391;SDS011;2719;53.624;9.786;2022-12-24T02:37:30;12.77;;;4.93;;
5391;SDS011;2719;53.624;9.786;2022-12-24T02:40:00;13.10;;;4.73;;
5391;SDS011;2719;53.624;9.786;2022-12-24T02:42:34;13.30;;;5.70;;
5391;SDS011;2719;53.624;9.786;2022-12-24T02:45:06;13.53;;;4.60;;
5391;SDS011;2719;53.624;9.786;2022-12-24T02:47:35;18.80;;;5.57;;
5391;SDS011;2719;53.624;9.786;2022-12-24T02:50:05;13.27;;;4.53;;
5391;SDS011;2719;53.624;9.786;2022-12-24T02:52:34;14.10;;;4.73;;
5391;SDS011;2719;53.624;9.786;2022-12-24T02:55:06;17.20;;;4.63;;
5391;SDS011;2719;53.624;9.786;2022-12-24T02:57:40;31.53;;;5.83;;
5391;SDS011;2719;53.624;9.786;2022-12-24T03:00:18;12.00;;;5.13;;
5391;SDS011;2719;53.624;9.786;2022-12-24T03:03:01;20.27;;;6.70;;
5391;SDS011;2719;53.624;9.786;2022-12-24T03:05:36;15.00;;;4.70;;
5391;SDS011;2719;53.624;9.786;2022-12-24T03:08:11;15.50;;;5.33;;
5391;SDS011;2719;53.624;9.786;2022-12-24T03:10:44;12.60;;;4.20;;
5391;SDS011;2719;53.624;9.786;2022-12-24T03:13:16;11.47;;;4.80;;
5391;SDS011;2719;53.624;9.786;2022-12-24T03:15:46;13.40;;;4.63;;
5391;SDS011;2719;53.624;9.786;2022-12-24T03:18:16;14.03;;;5.40;;
5391;SDS011;2719;53.624;9.786;2022-12-24T03:20:45;11.33;;;3.70;;
5391;SDS011;2719;53.624;9.786;2022-12-24T03:23:17;14.60;;;5.63;;
5391;SDS011;2719;53.624;9.786;2022-12-24T03:25:44;12.90;;;3.97;;
5391;SDS011;2719;53.624;9.786;2022-12-24T03:28:13;16.00;;;5.17;;
5391;SDS011;2719;53.624;9.786;2022-12-24T03:30:43;19.70;;;6.37;;
5391;SDS011;2719;53.624;9.786;2022-12-24T03:33:13;21.30;;;4.50;;
5391;SDS011;2719;53.624;9.786;2022-12-24T03:35:40;10.30;;;4.53;;
5391;SDS011;2719;53.624;9.786;2022-12-24T03:38:07;13.63;;;4.37;;
5391;SDS011;2719;53.624;9.786;2022-12-24T03:40:34;22.80;;;6.90;;
5391;SDS011;2719;53.624;9.786;2022-12-24T03:43:01;15.57;;;5.30;;
5391;SDS011;2719;53.624;9.786;2022-12-24T03:45:28;11.27;;;4.40;;
5391;SDS011;2719;53.624;9.786;2022-12-24T03:47:56;18.63;;;5.43;;
5391;SDS011;2719;53.624;9.786;2022-12-24T03:50:22;14.37;;;5.67;;
5391;SDS011;2719;53.624;9.786;2022-12-24T03:52:49;18.07;;;4.53;;
5391;SDS011;2719;53.624;9.786;2022-12-24T03:55:16;9.03;;;4.60;;
5391;SDS011;2719;53.624;9.786;2022-12-24T03:57:43;14.90;;;4.90;;
5391;SDS011;2719;53.624;9.786;2022-12-24T04:00:10;17.07;;;4.60;;
5391;SDS011;2719;53.624;9.786;2022-12-24T04:02:37;13.00;;;5.10;;
5391;SDS011;2719;53.624;9.786;2022-12-24T04:05:06;6.80;;;3.13;;
5391;SDS011;2719;53.624;9.786;2022-12-24T04:07:33;10.70;;;4.67;;
5391;SDS011;2719;53.624;9.786;2022-12-24T04:10:00;16.70;;;6.37;;
5391;SDS011;2719;53.624;9.786;2022-12-24T04:12:27;10.60;;;4.17;;
5391;SDS011;2719;53.624;9.786;2022-12-24T04:14:53;10.57;;;4.37;;
5391;SDS011;2719;53.624;9.786;2022-12-24T04:17:20;11.50;;;4.13;;
5391;SDS011;2719;53.624;9.786;2022-12-24T04:19:47;11.60;;;4.03;;
5391;SDS011;2719;53.624;9.786;2022-12-24T04:22:15;12.60;;;5.23;;
5391;SDS011;2719;53.624;9.786;2022-12-24T04:24:41;8.30;;;3.87;;
5391;SDS011;2719;53.624;9.786;2022-12-24T04:27:08;12.07;;;4.10;;
5391;SDS011;2719;53.624;9.786;2022-12-24T04:29:35;7.87;;;3.50;;
5391;SDS011;2719;53.624;9.786;2022-12-24T04:32:02;10.83;;;4.43;;
5391;SDS011;2719;53.624;9.786;2022-12-24T04:34:29;9.30;;;3.50;;
5391;SDS011;2719;53.624;9.786;2022-12-24T04:36:56;10.60;;;4.87;;
5391;SDS011;2719;53.624;9.786;2022-12-24T04:39:24;9.50;;;4.47;;
5391;SDS011;2719;53.624;9.786;2022-12-24T04:41:51;9.83;;;4.03;;
5391;SDS011;2719;53.624;9.786;2022-12-24T04:44:17;9.10;;;4.10;;
5391;SDS011;2719;53.624;9.786;2022-12-24T04:46:44;7.40;;;3.47;;
5391;SDS011;2719;53.624;9.786;2022-12-24T04:49:11;7.40;;;3.40;;
5391;SDS011;2719;53.624;9.786;2022-12-24T04:51:37;10.10;;;4.80;;
5391;SDS011;2719;53.624;9.786;2022-12-24T04:54:04;10.00;;;4.00;;
5391;SDS011;2719;53.624;9.786;2022-12-24T04:56:32;8.30;;;3.77;;
5391;SDS011;2719;53.624;9.786;2022-12-24T04:58:59;10.47;;;4.50;;
5391;SDS011;2719;53.624;9.786;2022-12-24T05:01:26;9.60;;;3.50;;
5391;SDS011;2719;53.624;9.786;2022-12-24T05:03:54;6.47;;;3.07;;
5391;SDS011;2719;53.624;9.786;2022-12-24T05:06:22;8.07;;;3.40;;
5391;SDS011;2719;53.624;9.786;2022-12-24T05:08:52;9.70;;;4.00;;
5391;SDS011;2719;53.624;9.786;2022-12-24T05:11:19;8.13;;;3.17;;
5391;SDS011;2719;53.624;9.786;2022-12-24T05:13:47;8.77;;;3.03;;
5391;SDS011;2719;53.624;9.786;2022-12-24T05:16:14;6.50;;;2.70;;
5391;SDS011;2719;53.624;9.786;2022-12-24T05:18:42;8.37;;;3.53;;
5391;SDS011;2719;53.624;9.786;2022-12-24T05:21:10;8.47;;;3.47;;
5391;SDS011;2719;53.624;9.786;2022-12-24T05:23:39;6.30;;;2.97;;
5391;SDS011;2719;53.624;9.786;2022-12-24T05:26:26;6.30;;;2.63;;
5391;SDS011;2719;53.624;9.786;2022-12-24T05:28:57;4.80;;;2.37;;
5391;SDS011;2719;53.624;9.786;2022-12-24T05:31:26;6.00;;;2.50;;
5391;SDS011;2719;53.624;9.786;2022-12-24T05:33:54;8.77;;;3.73;;
5391;SDS011;2719;53.624;9.786;2022-12-24T05:36:21;5.80;;;3.13;;
5391;SDS011;2719;53.624;9.786;2022-12-24T05:38:48;7.30;;;3.07;;
5391;SDS011;2719;53.624;9.786;2022-12-24T05:41:15;5.23;;;2.87;;
5391;SDS011;2719;53.624;9.786;2022-12-24T05:43:43;6.83;;;3.30;;
5391;SDS011;2719;53.624;9.786;2022-12-24T05:46:11;8.20;;;3.33;;
5391;SDS011;2719;53.624;9.786;2022-12-24T05:48:39;6.60;;;2.90;;
5391;SDS011;2719;53.624;9.786;2022-12-24T05:51:07;6.57;;;2.47;;
5391;SDS011;2719;53.624;9.786;2022-12-24T05:53:34;5.83;;;2.60;;
5391;SDS011;2719;53.624;9.786;2022-12-24T05:56:02;6.67;;;2.83;;
5391;SDS011;2719;53.624;9.786;2022-12-24T05:58:29;8.47;;;2.73;;
5391;SDS011;2719;53.624;9.786;2022-12-24T06:00:56;4.23;;;2.37;;
5391;SDS011;2719;53.624;9.786;2022-12-24T06:03:24;6.33;;;2.80;;
5391;SDS011;2719;53.624;9.786;2022-12-24T06:05:56;7.97;;;3.00;;
5391;SDS011;2719;53.624;9.786;2022-12-24T06:08:25;6.27;;;2.53;;
5391;SDS011;2719;53.624;9.786;2022-12-24T06:10:53;15.83;;;4.27;;
5391;SDS011;2719;53.624;9.786;2022-12-24T06:13:21;8.30;;;3.07;;
5391;SDS011;2719;53.624;9.786;2022-12-24T06:15:48;8.10;;;3.73;;
5391;SDS011;2719;53.624;9.786;2022-12-24T06:18:14;6.10;;;2.80;;
5391;SDS011;2719;53.624;9.786;2022-12-24T06:20:42;10.00;;;3.83;;
5391;SDS011;2719;53.624;9.786;2022-12-24T06:23:09;8.30;;;3.30;;
5391;SDS011;2719;53.624;9.786;2022-12-24T06:25:36;12.73;;;3.93;;
5391;SDS011;2719;53.624;9.786;2022-12-24T06:28:02;8.70;;;2.77;;
5391;SDS011;2719;53.624;9.786;2022-12-24T06:30:29;9.57;;;3.67;;
5391;SDS011;2719;53.624;9.786;2022-12-24T06:32:56;7.73;;;3.40;;
5391;SDS011;2719;53.624;9.786;2022-12-24T06:35:23;9.43;;;3.97;;
5391;SDS011;2719;53.624;9.786;2022-12-24T06:37:51;9.10;;;3.97;;
5391;SDS011;2719;53.624;9.786;2022-12-24T06:40:17;6.83;;;3.03;;
5391;SDS011;2719;53.624;9.786;2022-12-24T06:42:44;9.03;;;4.87;;
5391;SDS011;2719;53.624;9.786;2022-12-24T06:45:11;8.00;;;3.40;;
5391;SDS011;2719;53.624;9.786;2022-12-24T06:47:37;11.60;;;4.13;;
5391;SDS011;2719;53.624;9.786;2022-12-24T06:50:05;9.40;;;4.17;;
5391;SDS011;2719;53.624;9.786;2022-12-24T06:52:32;7.57;;;3.83;;
5391;SDS011;2719;53.624;9.786;2022-12-24T06:55:00;8.53;;;4.20;;
5391;SDS011;2719;53.624;9.786;2022-12-24T06:57:27;8.57;;;3.50;;
5391;SDS011;2719;53.624;9.786;2022-12-24T06:59:55;11.87;;;4.03;;
5391;SDS011;2719;53.624;9.786;2022-12-24T07:02:22;11.90;;;4.97;;
5391;SDS011;2719;53.624;9.786;2022-12-24T07:04:49;7.83;;;3.80;;
5391;SDS011;2719;53.624;9.786;2022-12-24T07:07:15;11.27;;;3.83;;
5391;SDS011;2719;53.624;9.786;2022-12-24T07:09:42;7.50;;;3.60;;
5391;SDS011;2719;53.624;9.786;2022-12-24T07:12:10;6.83;;;3.13;;
5391;SDS011;2719;53.624;9.786;2022-12-24T07:14:37;16.67;;;4.30;;
5391;SDS011;2719;53.624;9.786;2022-12-24T07:17:03;11.10;;;3.30;;
5391;SDS011;2719;53.624;9.786;2022-12-24T07:19:30;9.87;;;3.07;;
5391;SDS011;2719;53.624;9.786;2022-12-24T07:21:58;7.20;;;4.13;;
5391;SDS011;2719;53.624;9.786;2022-12-24T07:24:24;6.60;;;3.10;;
5391;SDS011;2719;53.624;9.786;2022-12-24T07:26:51;7.17;;;3.60;;
5391;SDS011;2719;53.624;9.786;2022-12-24T07:29:19;7.23;;;2.90;;
5391;SDS011;2719;53.624;9.786;2022-12-24T07:31:46;6.90;;;3.07;;
5391;SDS011;2719;53.624;9.786;2022-12-24T07:34:12;10.50;;;3.00;;
5391;SDS011;2719;53.624;9.786;2022-12-24T07:36:39;13.30;;;3.90;;
5391;SDS011;2719;53.624;9.786;2022-12-24T07:39:06;7.33;;;3.53;;
5391;SDS011;2719;53.624;9.786;2022-12-24T07:41:32;7.43;;;3.50;;
5391;SDS011;2719;53.624;9.786;2022-12-24T07:43:59;7.37;;;3.47;;
5391;SDS011;2719;53.624;9.786;2022-12-24T07:46:27;6.33;;;2.87;;
5391;SDS011;2719;53.624;9.786;2022-12-24T07:48:54;5.70;;;2.63;;
5391;SDS011;2719;53.624;9.786;2022-12-24T07:51:21;9.37;;;3.70;;
5391;SDS011;2719;53.624;9.786;2022-12-24T07:53:47;6.60;;;3.50;;
5391;SDS011;2719;53.624;9.786;2022-12-24T07:56:14;6.03;;;2.90;;
5391;SDS011;2719;53.624;9.786;2022-12-24T07:58:42;8.20;;;4.10;;
5391;SDS011;2719;53.624;9.786;2022-12-24T08:01:09;6.50;;;3.30;;
5391;SDS011;2719;53.624;9.786;2022-12-24T08:03:38;9.03;;;3.90;;
5391;SDS011;2719;53.624;9.786;2022-12-24T08:06:05;7.37;;;2.87;;
5391;SDS011;2719;53.624;9.786;2022-12-24T08:08:31;4.50;;;2.40;;
5391;SDS011;2719;53.624;9.786;2022-12-24T08:10:59;5.13;;;2.70;;
5391;SDS011;2719;53.624;9.786;2022-12-24T08:13:26;5.93;;;2.83;;
5391;SDS011;2719;53.624;9.786;2022-12-24T08:15:53;6.50;;;2.80;;
5391;SDS011;2719;53.624;9.786;2022-12-24T08:18:20;7.07;;;2.97;;
5391;SDS011;2719;53.624;9.786;2022-12-24T08:20:48;5.80;;;3.80;;
5391;SDS011;2719;53.624;9.786;2022-12-24T08:23:15;8.30;;;4.20;;
5391;SDS011;2719;53.624;9.786;2022-12-24T08:25:42;12.23;;;4.30;;
5391;SDS011;2719;53.624;9.786;2022-12-24T08:28:09;9.37;;;4.23;;
5391;SDS011;2719;53.624;9.786;2022-12-24T08:30:37;11.73;;;5.63;;
5391;SDS011;2719;53.624;9.786;2022-12-24T08:33:04;14.20;;;6.07;;
5391;SDS011;2719;53.624;9.786;2022-12-24T08:35:30;7.73;;;4.20;;
5391;SDS011;2719;53.624;9.786;2022-12-24T08:37:58;10.20;;;5.10;;
5391;SDS011;2719;53.624;9.786;2022-12-24T08:40:25;10.27;;;5.40;;
5391;SDS011;2719;53.624;9.786;2022-12-24T08:42:52;4.53;;;2.87;;
5391;SDS011;2719;53.624;9.786;2022-12-24T08:45:19;5.20;;;2.17;;
5391;SDS011;2719;53.624;9.786;2022-12-24T08:47:45;2.37;;;1.43;;
5391;SDS011;2719;53.624;9.786;2022-12-24T08:50:12;3.23;;;1.90;;
5391;SDS011;2719;53.624;9.786;2022-12-24T08:52:39;3.93;;;1.97;;
5391;SDS011;2719;53.624;9.786;2022-12-24T08:55:07;2.03;;;1.23;;
5391;SDS011;2719;53.624;9.786;2022-12-24T08:57:34;5.07;;;2.10;;
5391;SDS011;2719;53.624;9.786;2022-12-24T09:00:03;4.17;;;2.10;;
5391;SDS011;2719;53.624;9.786;2022-12-24T09:02:31;3.53;;;1.87;;
5391;SDS011;2719;53.624;9.786;2022-12-24T09:04:58;2.10;;;1.33;;
5391;SDS011;2719;53.624;9.786;2022-12-24T09:07:25;3.17;;;1.67;;
5391;SDS011;2719;53.624;9.786;2022-12-24T09:09:51;4.03;;;1.90;;
5391;SDS011;2719;53.624;9.786;2022-12-24T09:12:19;3.83;;;1.80;;
5391;SDS011;2719;53.624;9.786;2022-12-24T09:14:46;4.60;;;1.93;;
5391;SDS011;2719;53.624;9.786;2022-12-24T09:17:12;2.17;;;1.40;;
5391;SDS011;2719;53.624;9.786;2022-12-24T09:19:39;3.30;;;1.90;;
5391;SDS011;2719;53.624;9.786;2022-12-24T09:22:06;3.30;;;1.63;;
5391;SDS011;2719;53.624;9.786;2022-12-24T09:24:33;3.57;;;1.70;;
5391;SDS011;2719;53.624;9.786;2022-12-24T09:27:00;4.63;;;2.20;;
5391;SDS011;2719;53.624;9.786;2022-12-24T09:29:29;4.13;;;2.23;;
5391;SDS011;2719;53.624;9.786;2022-12-24T09:31:56;2.23;;;1.57;;
5391;SDS011;2719;53.624;9.786;2022-12-24T09:34:23;4.43;;;1.90;;
5391;SDS011;2719;53.624;9.786;2022-12-24T09:36:50;4.10;;;2.30;;
5391;SDS011;2719;53.624;9.786;2022-12-24T09:39:18;4.50;;;1.97;;
5391;SDS011;2719;53.624;9.786;2022-12-24T09:41:46;4.23;;;1.93;;
5391;SDS011;2719;53.624;9.786;2022-12-24T09:44:25;5.03;;;2.00;;
5391;SDS011;2719;53.624;9.786;2022-12-24T09:46:59;5.60;;;2.37;;
5391;SDS011;2719;53.624;9.786;2022-12-24T09:49:30;5.33;;;2.80;;
5391;SDS011;2719;53.624;9.786;2022-12-24T09:52:05;5.37;;;2.73;;
5391;SDS011;2719;53.624;9.786;2022-12-24T09:54:34;6.23;;;3.10;;
5391;SDS011;2719;53.624;9.786;2022-12-24T09:57:05;4.80;;;2.33;;
5391;SDS011;2719;53.624;9.786;2022-12-24T09:59:39;3.40;;;1.93;;
5391;SDS011;2719;53.624;9.786;2022-12-24T10:02:08;7.50;;;2.97;;
5391;SDS011;2719;53.624;9.786;2022-12-24T10:04:36;4.00;;;2.53;;
5391;SDS011;2719;53.624;9.786;2022-12-24T10:07:04;5.10;;;2.70;;
5391;SDS011;2719;53.624;9.786;2022-12-24T10:09:39;4.33;;;2.63;;
5391;SDS011;2719;53.624;9.786;2022-12-24T10:12:14;5.67;;;3.00;;
5391;SDS011;2719;53.624;9.786;2022-12-24T10:14:49;4.83;;;2.57;;
5391;SDS011;2719;53.624;9.786;2022-12-24T10:17:29;6.80;;;3.43;;
5391;SDS011;2719;53.624;9.786;2022-12-24T10:20:12;4.63;;;2.77;;
5391;SDS011;2719;53.624;9.786;2022-12-24T10:22:49;4.20;;;2.67;;
5391;SDS011;2719;53.624;9.786;2022-12-24T10:25:21;6.80;;;3.10;;
5391;SDS011;2719;53.624;9.786;2022-12-24T10:27:53;5.83;;;2.83;;
5391;SDS011;2719;53.624;9.786;2022-12-24T10:30:24;5.40;;;2.40;;
5391;SDS011;2719;53.624;9.786;2022-12-24T10:32:52;7.00;;;3.27;;
5391;SDS011;2719;53.624;9.786;2022-12-24T10:35:20;6.67;;;2.77;;
5391;SDS011;2719;53.624;9.786;2022-12-24T10:37:50;6.23;;;2.97;;
5391;SDS011;2719;53.624;9.786;2022-12-24T10:40:22;5.63;;;3.07;;
5391;SDS011;2719;53.624;9.786;2022-12-24T10:42:52;8.23;;;2.77;;
5391;SDS011;2719;53.624;9.786;2022-12-24T10:45:20;6.57;;;2.90;;
5391;SDS011;2719;53.624;9.786;2022-12-24T10:47:50;4.63;;;2.43;;
5391;SDS011;2719;53.624;9.786;2022-12-24T10:52:50;7.90;;;2.60;;
5391;SDS011;2719;53.624;9.786;2022-12-24T10:55:22;3.90;;;2.20;;
5391;SDS011;2719;53.624;9.786;2022-12-24T10:57:57;7.40;;;2.97;;
5391;SDS011;2719;53.624;9.786;2022-12-24T11:00:26;4.63;;;2.73;;
5391;SDS011;2719;53.624;9.786;2022-12-24T11:03:06;8.53;;;2.67;;
5391;SDS011;2719;53.624;9.786;2022-12-24T11:05:46;6.87;;;3.93;;
5391;SDS011;2719;53.624;9.786;2022-12-24T11:08:25;4.43;;;1.87;;
5391;SDS011;2719;53.624;9.786;2022-12-24T11:10:53;7.20;;;3.60;;
5391;SDS011;2719;53.624;9.786;2022-12-24T11:13:21;4.47;;;2.73;;
5391;SDS011;2719;53.624;9.786;2022-12-24T11:15:58;4.77;;;2.43;;
5391;SDS011;2719;53.624;9.786;2022-12-24T11:18:28;6.40;;;3.57;;
5391;SDS011;2719;53.624;9.786;2022-12-24T11:20:57;5.50;;;2.90;;
5391;SDS011;2719;53.624;9.786;2022-12-24T11:23:25;3.73;;;2.77;;
5391;SDS011;2719;53.624;9.786;2022-12-24T11:25:52;6.17;;;2.50;;
5391;SDS011;2719;53.624;9.786;2022-12-24T11:28:21;5.33;;;2.97;;
5391;SDS011;2719;53.624;9.786;2022-12-24T11:30:57;4.60;;;2.37;;
5391;SDS011;2719;53.624;9.786;2022-12-24T11:33:26;4.40;;;2.30;;
5391;SDS011;2719;53.624;9.786;2022-12-24T11:35:56;5.20;;;2.47;;
5391;SDS011;2719;53.624;9.786;2022-12-24T11:38:28;5.23;;;2.93;;
5391;SDS011;2719;53.624;9.786;2022-12-24T11:40:58;4.47;;;2.57;;
5391;SDS011;2719;53.624;9.786;2022-12-24T11:43:27;4.57;;;3.03;;
5391;SDS011;2719;53.624;9.786;2022-12-24T11:46:16;6.80;;;3.03;;
5391;SDS011;2719;53.624;9.786;2022-12-24T11:48:47;5.50;;;3.30;;
5391;SDS011;2719;53.624;9.786;2022-12-24T11:51:29;6.03;;;2.97;;
5391;SDS011;2719;53.624;9.786;2022-12-24T11:53:57;6.33;;;2.90;;
5391;SDS011;2719;53.624;9.786;2022-12-24T11:56:35;4.97;;;2.43;;
5391;SDS011;2719;53.624;9.786;2022-12-24T11:59:11;5.47;;;2.47;;
5391;SDS011;2719;53.624;9.786;2022-12-24T12:01:49;8.83;;;3.70;;
5391;SDS011;2719;53.624;9.786;2022-12-24T12:04:23;7.33;;;2.43;;
5391;SDS011;2719;53.624;9.786;2022-12-24T12:06:54;4.00;;;2.47;;
5391;SDS011;2719;53.624;9.786;2022-12-24T12:09:25;4.90;;;3.07;;
5391;SDS011;2719;53.624;9.786;2022-12-24T12:11:57;10.93;;;3.43;;
5391;SDS011;2719;53.624;9.786;2022-12-24T12:14:28;7.10;;;3.00;;
5391;SDS011;2719;53.624;9.786;2022-12-24T12:16:59;8.63;;;4.30;;
5391;SDS011;2719;53.624;9.786;2022-12-24T12:19:34;8.87;;;4.23;;
5391;SDS011;2719;53.624;9.786;2022-12-24T12:22:06;11.07;;;3.90;;
5391;SDS011;2719;53.624;9.786;2022-12-24T12:24:41;13.70;;;4.67;;
5391;SDS011;2719;53.624;9.786;2022-12-24T12:27:15;7.80;;;4.33;;
5391;SDS011;2719;53.624;9.786;2022-12-24T12:29:46;9.10;;;4.40;;
5391;SDS011;2719;53.624;9.786;2022-12-24T12:32:21;10.07;;;4.80;;
5391;SDS011;2719;53.624;9.786;2022-12-24T12:34:57;9.60;;;5.67;;
5391;SDS011;2719;53.624;9.786;2022-12-24T12:37:30;10.70;;;4.93;;
5391;SDS011;2719;53.624;9.786;2022-12-24T12:40:00;9.20;;;4.87;;
5391;SDS011;2719;53.624;9.786;2022-12-24T12:42:28;14.37;;;5.77;;
5391;SDS011;2719;53.624;9.786;2022-12-24T12:45:09;10.13;;;4.83;;
5391;SDS011;2719;53.624;9.786;2022-12-24T12:47:58;8.83;;;4.50;;
5391;SDS011;2719;53.624;9.786;2022-12-24T12:50:38;18.30;;;5.00;;
5391;SDS011;2719;53.624;9.786;2022-12-24T12:53:14;25.17;;;10.50;;
5391;SDS011;2719;53.624;9.786;2022-12-24T12:55:57;10.13;;;4.37;;
5391;SDS011;2719;53.624;9.786;2022-12-24T12:58:32;10.07;;;3.73;;
5391;SDS011;2719;53.624;9.786;2022-12-24T13:01:04;8.33;;;3.40;;
5391;SDS011;2719;53.624;9.786;2022-12-24T13:03:42;8.33;;;4.20;;
5391;SDS011;2719;53.624;9.786;2022-12-24T13:06:35;14.13;;;3.97;;
5391;SDS011;2719;53.624;9.786;2022-12-24T13:09:16;19.50;;;4.83;;
5391;SDS011;2719;53.624;9.786;2022-12-24T13:12:03;14.17;;;4.37;;
5391;SDS011;2719;53.624;9.786;2022-12-24T13:14:50;14.20;;;3.87;;
5391;SDS011;2719;53.624;9.786;2022-12-24T13:20:19;42.40;;;5.90;;
5391;SDS011;2719;53.624;9.786;2022-12-24T13:22:55;24.07;;;6.07;;
5391;SDS011;2719;53.624;9.786;2022-12-24T13:25:25;19.60;;;4.57;;
5391;SDS011;2719;53.624;9.786;2022-12-24T13:30:40;18.23;;;4.57;;
5391;SDS011;2719;53.624;9.786;2022-12-24T13:33:08;16.10;;;4.60;;
5391;SDS011;2719;53.624;9.786;2022-12-24T13:44:24;16.20;;;5.17;;
5391;SDS011;2719;53.624;9.786;2022-12-24T13:46:57;17.93;;;4.30;;
5391;SDS011;2719;53.624;9.786;2022-12-24T13:49:34;36.17;;;4.33;;
5391;SDS011;2719;53.624;9.786;2022-12-24T13:55:01;17.97;;;3.40;;
5391;SDS011;2719;53.624;9.786;2022-12-24T13:57:34;31.20;;;3.07;;
5391;SDS011;2719;53.624;9.786;2022-12-24T14:00:05;22.00;;;5.83;;
5391;SDS011;2719;53.624;9.786;2022-12-24T14:02:49;19.80;;;3.17;;
5391;SDS011;2719;53.624;9.786;2022-12-24T14:05:24;18.77;;;2.80;;
5391;SDS011;2719;53.624;9.786;2022-12-24T14:07:57;18.03;;;2.67;;
5391;SDS011;2719;53.624;9.786;2022-12-24T14:10:28;23.23;;;3.63;;
5391;SDS011;2719;53.624;9.786;2022-12-24T14:12:59;26.03;;;4.00;;
5391;SDS011;2719;53.624;9.786;2022-12-24T14:18:31;33.87;;;4.80;;
5391;SDS011;2719;53.624;9.786;2022-12-24T14:21:03;31.90;;;4.00;;
5391;SDS011;2719;53.624;9.786;2022-12-24T14:23:36;19.70;;;3.30;;
5391;SDS011;2719;53.624;9.786;2022-12-24T14:26:16;19.27;;;4.10;;
5391;SDS011;2719;53.624;9.786;2022-12-24T14:28:46;21.60;;;3.40;;
5391;SDS011;2719;53.624;9.786;2022-12-24T14:31:19;18.73;;;3.67;;
5391;SDS011;2719;53.624;9.786;2022-12-24T14:33:47;26.23;;;5.13;;
5391;SDS011;2719;53.624;9.786;2022-12-24T14:36:17;20.77;;;3.70;;
5391;SDS011;2719;53.624;9.786;2022-12-24T14:38:47;15.60;;;3.03;;
5391;SDS011;2719;53.624;9.786;2022-12-24T14:41:24;22.20;;;4.20;;
5391;SDS011;2719;53.624;9.786;2022-12-24T14:44:03;24.07;;;3.80;;
5391;SDS011;2719;53.624;9.786;2022-12-24T14:46:38;25.20;;;6.50;;
5391;SDS011;2719;53.624;9.786;2022-12-24T14:49:12;24.20;;;4.03;;
5391;SDS011;2719;53.624;9.786;2022-12-24T14:51:57;17.93;;;3.90;;
5391;SDS011;2719;53.624;9.786;2022-12-24T14:54:33;26.43;;;3.23;;
5391;SDS011;2719;53.624;9.786;2022-12-24T14:57:21;17.73;;;4.17;;
5391;SDS011;2719;53.624;9.786;2022-12-24T14:59:50;10.70;;;2.43;;
5391;SDS011;2719;53.624;9.786;2022-12-24T15:02:22;17.70;;;2.80;;
5391;SDS011;2719;53.624;9.786;2022-12-24T15:05:03;8.37;;;2.77;;
5391;SDS011;2719;53.624;9.786;2022-12-24T15:07:32;21.10;;;4.53;;
5391;SDS011;2719;53.624;9.786;2022-12-24T15:10:01;20.33;;;3.47;;
5391;SDS011;2719;53.624;9.786;2022-12-24T15:12:31;22.53;;;5.43;;
5391;SDS011;2719;53.624;9.786;2022-12-24T15:14:58;17.37;;;4.07;;
5391;SDS011;2719;53.624;9.786;2022-12-24T15:17:25;28.37;;;7.00;;
5391;SDS011;2719;53.624;9.786;2022-12-24T15:19:52;27.83;;;7.70;;
5391;SDS011;2719;53.624;9.786;2022-12-24T15:22:21;33.63;;;6.00;;
5391;SDS011;2719;53.624;9.786;2022-12-24T15:24:50;24.37;;;6.43;;
5391;SDS011;2719;53.624;9.786;2022-12-24T15:27:18;27.73;;;5.50;;
5391;SDS011;2719;53.624;9.786;2022-12-24T15:29:49;19.90;;;3.57;;
5391;SDS011;2719;53.624;9.786;2022-12-24T15:32:18;32.77;;;7.00;;
5391;SDS011;2719;53.624;9.786;2022-12-24T15:34:46;20.63;;;4.00;;
5391;SDS011;2719;53.624;9.786;2022-12-24T15:37:16;12.00;;;3.53;;
5391;SDS011;2719;53.624;9.786;2022-12-24T15:39:51;20.50;;;3.80;;
5391;SDS011;2719;53.624;9.786;2022-12-24T15:42:19;18.47;;;3.40;;
5391;SDS011;2719;53.624;9.786;2022-12-24T15:44:53;15.07;;;3.20;;
5391;SDS011;2719;53.624;9.786;2022-12-24T15:47:25;12.20;;;3.03;;
5391;SDS011;2719;53.624;9.786;2022-12-24T15:49:53;33.17;;;4.13;;